sensor_id;sensor_type;location;lat;lon;timestamp;P1;durP1;ratioP1;P2;durP2;ratioP2
15669;SDS011;18524;45.190;5.732;2023-02-25T00:02:57;19.77;;;11.23;;
15669;SDS011;18524;45.190;5.732;2023-02-25T00:07:48;22.67;;;11.73;;
15669;SDS011;18524;45.190;5.732;2023-02-25T00:12:38;12.33;;;8.67;;
15669;SDS011;18524;45.190;5.732;2023-02-25T00:17:29;9.47;;;6.50;;
15669;SDS011;18524;45.190;5.732;2023-02-25T00:22:19;8.37;;;5.73;;
15669;SDS011;18524;45.190;5.732;2023-02-25T00:27:10;7.00;;;4.83;;
15669;SDS011;18524;45.190;5.732;2023-02-25T00:32:00;6.70;;;5.00;;
15669;SDS011;18524;45.190;5.732;2023-02-25T00:36:50;6.63;;;4.60;;
15669;SDS011;18524;45.190;5.732;2023-02-25T00:41:41;6.77;;;3.37;;
15669;SDS011;18524;45.190;5.732;2023-02-25T00:46:31;4.63;;;2.80;;
15669;SDS011;18524;45.190;5.732;2023-02-25T00:51:24;4.93;;;2.63;;
15669;SDS011;18524;45.190;5.732;2023-02-25T00:56:16;2.23;;;2.03;;
15669;SDS011;18524;45.190;5.732;2023-02-25T01:01:16;2.87;;;2.10;;
15669;SDS011;18524;45.190;5.732;2023-02-25T01:06:07;4.20;;;1.90;;
15669;SDS011;18524;45.190;5.732;2023-02-25T01:10:58;3.63;;;1.67;;
15669;SDS011;18524;45.190;5.732;2023-02-25T01:15:49;3.07;;;1.37;;
15669;SDS011;18524;45.190;5.732;2023-02-25T01:20:39;4.50;;;1.60;;
15669;SDS011;18524;45.190;5.732;2023-02-25T01:25:29;3.00;;;1.80;;
15669;SDS011;18524;45.190;5.732;2023-02-25T01:30:20;3.27;;;1.73;;
15669;SDS011;18524;45.190;5.732;2023-02-25T01:35:10;3.87;;;1.43;;
15669;SDS011;18524;45.190;5.732;2023-02-25T01:40:01;3.23;;;2.00;;
15669;SDS011;18524;45.190;5.732;2023-02-25T01:45:34;3.87;;;1.93;;
15669;SDS011;18524;45.190;5.732;2023-02-25T01:50:11;5.80;;;2.17;;
15669;SDS011;18524;45.190;5.732;2023-02-25T01:55:01;2.53;;;1.60;;
15669;SDS011;18524;45.190;5.732;2023-02-25T01:59:52;4.07;;;1.73;;
15669;SDS011;18524;45.190;5.732;2023-02-25T02:04:44;3.17;;;1.70;;
15669;SDS011;18524;45.190;5.732;2023-02-25T02:09:39;3.50;;;1.60;;
15669;SDS011;18524;45.190;5.732;2023-02-25T02:14:36;3.20;;;1.70;;
15669;SDS011;18524;45.190;5.732;2023-02-25T02:24:44;2.93;;;1.63;;
15669;SDS011;18524;45.190;5.732;2023-02-25T02:40:13;3.67;;;1.80;;
15669;SDS011;18524;45.190;5.732;2023-02-25T02:45:22;3.90;;;2.27;;
15669;SDS011;18524;45.190;5.732;2023-02-25T02:55:27;4.77;;;1.60;;
15669;SDS011;18524;45.190;5.732;2023-02-25T03:00:23;3.80;;;1.60;;
15669;SDS011;18524;45.190;5.732;2023-02-25T03:05:18;3.20;;;1.70;;
15669;SDS011;18524;45.190;5.732;2023-02-25T03:10:12;3.93;;;1.80;;
15669;SDS011;18524;45.190;5.732;2023-02-25T03:15:07;4.27;;;1.83;;
15669;SDS011;18524;45.190;5.732;2023-02-25T03:25:25;4.10;;;2.90;;
15669;SDS011;18524;45.190;5.732;2023-02-25T03:35:25;5.97;;;2.80;;
15669;SDS011;18524;45.190;5.732;2023-02-25T03:40:17;5.63;;;2.30;;
15669;SDS011;18524;45.190;5.732;2023-02-25T03:45:09;3.20;;;1.77;;
15669;SDS011;18524;45.190;5.732;2023-02-25T03:55:03;3.60;;;1.93;;
15669;SDS011;18524;45.190;5.732;2023-02-25T03:59:55;4.73;;;1.90;;
15669;SDS011;18524;45.190;5.732;2023-02-25T04:04:45;3.43;;;1.97;;
15669;SDS011;18524;45.190;5.732;2023-02-25T04:09:35;2.30;;;1.80;;
15669;SDS011;18524;45.190;5.732;2023-02-25T04:14:26;4.30;;;2.00;;
15669;SDS011;18524;45.190;5.732;2023-02-25T04:19:16;4.37;;;2.07;;
15669;SDS011;18524;45.190;5.732;2023-02-25T04:24:07;3.97;;;2.00;;
15669;SDS011;18524;45.190;5.732;2023-02-25T04:28:58;4.03;;;1.87;;
15669;SDS011;18524;45.190;5.732;2023-02-25T04:33:48;4.80;;;2.00;;
15669;SDS011;18524;45.190;5.732;2023-02-25T04:38:39;4.30;;;2.40;;
15669;SDS011;18524;45.190;5.732;2023-02-25T04:43:29;3.20;;;2.40;;
15669;SDS011;18524;45.190;5.732;2023-02-25T04:48:20;5.27;;;3.30;;
15669;SDS011;18524;45.190;5.732;2023-02-25T04:53:13;4.37;;;3.07;;
15669;SDS011;18524;45.190;5.732;2023-02-25T04:58:03;6.90;;;2.97;;
15669;SDS011;18524;45.190;5.732;2023-02-25T05:02:53;5.47;;;2.80;;
15669;SDS011;18524;45.190;5.732;2023-02-25T05:07:45;3.67;;;2.27;;
15669;SDS011;18524;45.190;5.732;2023-02-25T05:12:35;3.93;;;2.20;;
15669;SDS011;18524;45.190;5.732;2023-02-25T05:17:25;3.17;;;1.80;;
15669;SDS011;18524;45.190;5.732;2023-02-25T05:22:16;5.23;;;1.93;;
15669;SDS011;18524;45.190;5.732;2023-02-25T05:27:06;4.33;;;2.00;;
15669;SDS011;18524;45.190;5.732;2023-02-25T05:31:57;3.87;;;2.03;;
15669;SDS011;18524;45.190;5.732;2023-02-25T05:36:47;4.23;;;2.30;;
15669;SDS011;18524;45.190;5.732;2023-02-25T05:41:38;3.27;;;2.20;;
15669;SDS011;18524;45.190;5.732;2023-02-25T05:46:28;3.87;;;2.40;;
15669;SDS011;18524;45.190;5.732;2023-02-25T05:51:20;4.80;;;2.43;;
15669;SDS011;18524;45.190;5.732;2023-02-25T05:56:13;6.47;;;3.00;;
15669;SDS011;18524;45.190;5.732;2023-02-25T06:01:07;3.60;;;2.97;;
15669;SDS011;18524;45.190;5.732;2023-02-25T06:06:00;4.40;;;3.10;;
15669;SDS011;18524;45.190;5.732;2023-02-25T06:10:50;4.97;;;3.00;;
15669;SDS011;18524;45.190;5.732;2023-02-25T06:15:41;4.10;;;3.20;;
15669;SDS011;18524;45.190;5.732;2023-02-25T06:20:32;5.73;;;3.40;;
15669;SDS011;18524;45.190;5.732;2023-02-25T06:25:24;4.23;;;3.40;;
15669;SDS011;18524;45.190;5.732;2023-02-25T06:30:18;3.40;;;3.10;;
15669;SDS011;18524;45.190;5.732;2023-02-25T06:35:09;3.73;;;3.20;;
15669;SDS011;18524;45.190;5.732;2023-02-25T06:39:59;6.33;;;3.30;;
15669;SDS011;18524;45.190;5.732;2023-02-25T06:44:50;3.23;;;2.93;;
15669;SDS011;18524;45.190;5.732;2023-02-25T06:49:40;2.87;;;2.67;;
15669;SDS011;18524;45.190;5.732;2023-02-25T06:54:30;3.37;;;3.07;;
15669;SDS011;18524;45.190;5.732;2023-02-25T06:59:21;4.57;;;3.50;;
15669;SDS011;18524;45.190;5.732;2023-02-25T07:04:15;4.83;;;3.30;;
15669;SDS011;18524;45.190;5.732;2023-02-25T07:09:07;2.97;;;2.63;;
15669;SDS011;18524;45.190;5.732;2023-02-25T07:13:58;3.30;;;2.60;;
15669;SDS011;18524;45.190;5.732;2023-02-25T07:18:48;2.90;;;2.60;;
15669;SDS011;18524;45.190;5.732;2023-02-25T07:23:40;2.70;;;2.50;;
15669;SDS011;18524;45.190;5.732;2023-02-25T07:28:31;2.80;;;2.27;;
15669;SDS011;18524;45.190;5.732;2023-02-25T07:33:21;3.53;;;2.47;;
15669;SDS011;18524;45.190;5.732;2023-02-25T07:38:12;3.47;;;2.50;;
15669;SDS011;18524;45.190;5.732;2023-02-25T07:43:02;4.10;;;2.60;;
15669;SDS011;18524;45.190;5.732;2023-02-25T07:47:52;3.80;;;2.17;;
15669;SDS011;18524;45.190;5.732;2023-02-25T07:52:43;4.13;;;2.50;;
15669;SDS011;18524;45.190;5.732;2023-02-25T07:57:33;3.50;;;2.90;;
15669;SDS011;18524;45.190;5.732;2023-02-25T08:02:24;3.33;;;2.93;;
15669;SDS011;18524;45.190;5.732;2023-02-25T08:07:15;3.53;;;3.07;;
15669;SDS011;18524;45.190;5.732;2023-02-25T08:12:05;4.30;;;3.00;;
15669;SDS011;18524;45.190;5.732;2023-02-25T08:16:56;3.93;;;3.10;;
15669;SDS011;18524;45.190;5.732;2023-02-25T08:21:46;4.63;;;2.90;;
15669;SDS011;18524;45.190;5.732;2023-02-25T08:26:37;4.40;;;2.97;;
15669;SDS011;18524;45.190;5.732;2023-02-25T08:31:27;3.43;;;2.87;;
15669;SDS011;18524;45.190;5.732;2023-02-25T08:36:22;3.43;;;3.00;;
15669;SDS011;18524;45.190;5.732;2023-02-25T08:41:16;4.13;;;3.03;;
15669;SDS011;18524;45.190;5.732;2023-02-25T08:46:07;4.07;;;3.03;;
15669;SDS011;18524;45.190;5.732;2023-02-25T08:51:02;3.30;;;3.00;;
15669;SDS011;18524;45.190;5.732;2023-02-25T08:56:00;3.93;;;3.53;;
15669;SDS011;18524;45.190;5.732;2023-02-25T09:00:52;3.60;;;3.30;;
15669;SDS011;18524;45.190;5.732;2023-02-25T09:05:49;4.97;;;3.50;;
15669;SDS011;18524;45.190;5.732;2023-02-25T09:10:40;3.53;;;3.23;;
15669;SDS011;18524;45.190;5.732;2023-02-25T09:15:30;5.00;;;3.30;;
15669;SDS011;18524;45.190;5.732;2023-02-25T09:20:21;4.90;;;3.47;;
15669;SDS011;18524;45.190;5.732;2023-02-25T09:25:13;3.67;;;3.20;;
15669;SDS011;18524;45.190;5.732;2023-02-25T09:30:03;3.70;;;3.37;;
15669;SDS011;18524;45.190;5.732;2023-02-25T09:34:55;3.23;;;2.93;;
15669;SDS011;18524;45.190;5.732;2023-02-25T09:39:45;5.37;;;3.80;;
15669;SDS011;18524;45.190;5.732;2023-02-25T09:44:38;4.90;;;3.30;;
15669;SDS011;18524;45.190;5.732;2023-02-25T09:49:33;5.50;;;3.30;;
15669;SDS011;18524;45.190;5.732;2023-02-25T09:54:32;3.30;;;3.00;;
15669;SDS011;18524;45.190;5.732;2023-02-25T09:59:27;3.40;;;3.10;;
15669;SDS011;18524;45.190;5.732;2023-02-25T10:04:34;2.93;;;2.73;;
15669;SDS011;18524;45.190;5.732;2023-02-25T10:14:50;3.63;;;3.20;;
15669;SDS011;18524;45.190;5.732;2023-02-25T10:25:07;3.43;;;3.03;;
15669;SDS011;18524;45.190;5.732;2023-02-25T10:30:13;5.43;;;3.67;;
15669;SDS011;18524;45.190;5.732;2023-02-25T10:35:26;4.33;;;3.70;;
15669;SDS011;18524;45.190;5.732;2023-02-25T10:40:19;3.60;;;3.30;;
15669;SDS011;18524;45.190;5.732;2023-02-25T10:45:12;5.73;;;4.60;;
15669;SDS011;18524;45.190;5.732;2023-02-25T10:55:01;4.93;;;4.30;;
15669;SDS011;18524;45.190;5.732;2023-02-25T11:00:02;4.73;;;3.70;;
15669;SDS011;18524;45.190;5.732;2023-02-25T11:04:55;4.23;;;3.30;;
15669;SDS011;18524;45.190;5.732;2023-02-25T11:09:46;4.70;;;3.70;;
15669;SDS011;18524;45.190;5.732;2023-02-25T11:14:37;5.33;;;4.20;;
15669;SDS011;18524;45.190;5.732;2023-02-25T11:19:29;5.73;;;5.13;;
15669;SDS011;18524;45.190;5.732;2023-02-25T11:24:29;9.47;;;5.90;;
15669;SDS011;18524;45.190;5.732;2023-02-25T11:29:24;10.33;;;6.20;;
15669;SDS011;18524;45.190;5.732;2023-02-25T11:34:22;5.17;;;4.60;;
15669;SDS011;18524;45.190;5.732;2023-02-25T11:39:25;5.53;;;4.40;;
15669;SDS011;18524;45.190;5.732;2023-02-25T11:44:21;6.47;;;4.90;;
15669;SDS011;18524;45.190;5.732;2023-02-25T11:49:18;5.43;;;4.50;;
15669;SDS011;18524;45.190;5.732;2023-02-25T11:54:32;5.97;;;5.37;;
15669;SDS011;18524;45.190;5.732;2023-02-25T11:59:41;9.00;;;5.60;;
15669;SDS011;18524;45.190;5.732;2023-02-25T12:10:15;5.97;;;5.10;;
15669;SDS011;18524;45.190;5.732;2023-02-25T12:25:35;7.57;;;5.57;;
15669;SDS011;18524;45.190;5.732;2023-02-25T12:36:25;5.87;;;4.63;;
15669;SDS011;18524;45.190;5.732;2023-02-25T12:46:26;10.07;;;7.13;;
15669;SDS011;18524;45.190;5.732;2023-02-25T12:57:17;4.80;;;4.30;;
15669;SDS011;18524;45.190;5.732;2023-02-25T13:02:30;4.90;;;4.50;;
15669;SDS011;18524;45.190;5.732;2023-02-25T13:07:41;4.83;;;4.20;;
15669;SDS011;18524;45.190;5.732;2023-02-25T13:12:46;9.90;;;4.63;;
15669;SDS011;18524;45.190;5.732;2023-02-25T13:17:43;5.87;;;4.60;;
15669;SDS011;18524;45.190;5.732;2023-02-25T13:28:18;5.50;;;4.40;;
15669;SDS011;18524;45.190;5.732;2023-02-25T13:43:25;5.40;;;4.50;;
15669;SDS011;18524;45.190;5.732;2023-02-25T13:48:35;6.87;;;4.60;;
15669;SDS011;18524;45.190;5.732;2023-02-25T13:59:42;6.23;;;4.90;;
15669;SDS011;18524;45.190;5.732;2023-02-25T14:20:13;7.57;;;4.50;;
15669;SDS011;18524;45.190;5.732;2023-02-25T14:25:19;6.20;;;4.50;;
15669;SDS011;18524;45.190;5.732;2023-02-25T15:00:51;7.07;;;4.90;;
15669;SDS011;18524;45.190;5.732;2023-02-25T15:06:02;8.70;;;4.20;;
15669;SDS011;18524;45.190;5.732;2023-02-25T15:26:38;5.37;;;4.20;;
15669;SDS011;18524;45.190;5.732;2023-02-25T15:31:35;7.00;;;4.33;;
15669;SDS011;18524;45.190;5.732;2023-02-25T15:36:43;8.17;;;4.90;;
15669;SDS011;18524;45.190;5.732;2023-02-25T15:41:42;5.57;;;4.77;;
15669;SDS011;18524;45.190;5.732;2023-02-25T15:51:41;6.83;;;5.70;;
15669;SDS011;18524;45.190;5.732;2023-02-25T15:56:45;7.27;;;6.47;;
15669;SDS011;18524;45.190;5.732;2023-02-25T16:01:40;7.30;;;6.00;;
15669;SDS011;18524;45.190;5.732;2023-02-25T16:06:37;8.47;;;6.47;;
15669;SDS011;18524;45.190;5.732;2023-02-25T16:11:37;9.37;;;6.07;;
15669;SDS011;18524;45.190;5.732;2023-02-25T16:16:41;8.57;;;6.17;;
15669;SDS011;18524;45.190;5.732;2023-02-25T16:21:40;9.13;;;6.37;;
15669;SDS011;18524;45.190;5.732;2023-02-25T16:42:19;10.60;;;8.30;;
15669;SDS011;18524;45.190;5.732;2023-02-25T16:47:21;13.40;;;9.40;;
15669;SDS011;18524;45.190;5.732;2023-02-25T16:52:15;12.53;;;8.93;;
15669;SDS011;18524;45.190;5.732;2023-02-25T16:57:15;11.10;;;8.43;;
15669;SDS011;18524;45.190;5.732;2023-02-25T17:07:18;12.37;;;9.63;;
15669;SDS011;18524;45.190;5.732;2023-02-25T17:12:18;16.33;;;9.53;;
15669;SDS011;18524;45.190;5.732;2023-02-25T17:17:37;13.87;;;10.10;;
15669;SDS011;18524;45.190;5.732;2023-02-25T17:22:30;13.10;;;8.40;;
15669;SDS011;18524;45.190;5.732;2023-02-25T17:27:22;11.07;;;8.67;;
15669;SDS011;18524;45.190;5.732;2023-02-25T17:32:22;9.57;;;7.57;;
15669;SDS011;18524;45.190;5.732;2023-02-25T17:37:16;8.77;;;7.37;;
15669;SDS011;18524;45.190;5.732;2023-02-25T17:42:27;10.07;;;7.07;;
15669;SDS011;18524;45.190;5.732;2023-02-25T17:47:25;13.63;;;7.00;;
15669;SDS011;18524;45.190;5.732;2023-02-25T17:57:30;10.13;;;7.10;;
15669;SDS011;18524;45.190;5.732;2023-02-25T18:02:29;9.90;;;7.27;;
15669;SDS011;18524;45.190;5.732;2023-02-25T18:17:33;9.20;;;6.47;;
15669;SDS011;18524;45.190;5.732;2023-02-25T18:22:34;8.90;;;6.43;;
15669;SDS011;18524;45.190;5.732;2023-02-25T18:27:28;9.43;;;6.67;;
15669;SDS011;18524;45.190;5.732;2023-02-25T18:32:21;11.30;;;7.80;;
15669;SDS011;18524;45.190;5.732;2023-02-25T18:37:12;12.17;;;6.73;;
15669;SDS011;18524;45.190;5.732;2023-02-25T18:42:08;10.97;;;7.47;;
15669;SDS011;18524;45.190;5.732;2023-02-25T18:47:01;10.40;;;7.50;;
15669;SDS011;18524;45.190;5.732;2023-02-25T18:51:52;11.13;;;8.47;;
15669;SDS011;18524;45.190;5.732;2023-02-25T18:56:42;9.40;;;7.30;;
15669;SDS011;18524;45.190;5.732;2023-02-25T19:01:33;10.37;;;7.50;;
15669;SDS011;18524;45.190;5.732;2023-02-25T19:06:23;11.40;;;7.17;;
15669;SDS011;18524;45.190;5.732;2023-02-25T19:11:15;9.87;;;7.27;;
15669;SDS011;18524;45.190;5.732;2023-02-25T19:16:09;8.43;;;6.90;;
15669;SDS011;18524;45.190;5.732;2023-02-25T19:21:00;10.10;;;6.93;;
15669;SDS011;18524;45.190;5.732;2023-02-25T19:25:57;19.67;;;7.50;;
15669;SDS011;18524;45.190;5.732;2023-02-25T19:30:49;10.50;;;6.73;;
15669;SDS011;18524;45.190;5.732;2023-02-25T19:35:40;7.90;;;6.63;;
15669;SDS011;18524;45.190;5.732;2023-02-25T19:40:32;9.17;;;6.30;;
15669;SDS011;18524;45.190;5.732;2023-02-25T19:45:23;8.77;;;6.40;;
15669;SDS011;18524;45.190;5.732;2023-02-25T19:50:20;9.00;;;6.47;;
15669;SDS011;18524;45.190;5.732;2023-02-25T19:55:13;8.50;;;6.03;;
15669;SDS011;18524;45.190;5.732;2023-02-25T20:00:04;7.53;;;5.93;;
15669;SDS011;18524;45.190;5.732;2023-02-25T20:04:59;10.60;;;6.97;;
15669;SDS011;18524;45.190;5.732;2023-02-25T20:09:49;10.53;;;6.77;;
15669;SDS011;18524;45.190;5.732;2023-02-25T20:14:40;9.50;;;7.00;;
15669;SDS011;18524;45.190;5.732;2023-02-25T20:19:30;9.67;;;6.20;;
15669;SDS011;18524;45.190;5.732;2023-02-25T20:24:24;8.30;;;6.10;;
15669;SDS011;18524;45.190;5.732;2023-02-25T20:29:14;6.97;;;5.53;;
15669;SDS011;18524;45.190;5.732;2023-02-25T20:34:34;10.87;;;6.33;;
15669;SDS011;18524;45.190;5.732;2023-02-25T20:44:28;8.23;;;6.27;;
15669;SDS011;18524;45.190;5.732;2023-02-25T20:49:18;8.60;;;6.10;;
15669;SDS011;18524;45.190;5.732;2023-02-25T20:54:09;7.47;;;5.33;;
15669;SDS011;18524;45.190;5.732;2023-02-25T20:58:59;7.07;;;5.93;;
15669;SDS011;18524;45.190;5.732;2023-02-25T21:03:50;6.30;;;5.30;;
15669;SDS011;18524;45.190;5.732;2023-02-25T21:08:40;7.40;;;5.50;;
15669;SDS011;18524;45.190;5.732;2023-02-25T21:13:31;7.00;;;5.30;;
15669;SDS011;18524;45.190;5.732;2023-02-25T21:18:21;8.07;;;5.80;;
15669;SDS011;18524;45.190;5.732;2023-02-25T21:23:14;7.67;;;5.83;;
15669;SDS011;18524;45.190;5.732;2023-02-25T21:28:05;6.53;;;5.00;;
15669;SDS011;18524;45.190;5.732;2023-02-25T21:32:55;9.00;;;5.80;;
15669;SDS011;18524;45.190;5.732;2023-02-25T21:37:46;7.03;;;4.93;;
15669;SDS011;18524;45.190;5.732;2023-02-25T21:42:37;7.47;;;5.00;;
15669;SDS011;18524;45.190;5.732;2023-02-25T21:47:27;8.37;;;5.33;;
15669;SDS011;18524;45.190;5.732;2023-02-25T21:52:17;6.33;;;4.60;;
15669;SDS011;18524;45.190;5.732;2023-02-25T21:57:08;7.97;;;5.00;;
15669;SDS011;18524;45.190;5.732;2023-02-25T22:02:01;6.00;;;5.20;;
15669;SDS011;18524;45.190;5.732;2023-02-25T22:06:51;7.77;;;5.13;;
15669;SDS011;18524;45.190;5.732;2023-02-25T22:11:41;7.37;;;4.77;;
15669;SDS011;18524;45.190;5.732;2023-02-25T22:16:35;6.47;;;4.90;;
15669;SDS011;18524;45.190;5.732;2023-02-25T22:21:27;7.03;;;4.57;;
15669;SDS011;18524;45.190;5.732;2023-02-25T22:26:20;5.50;;;4.13;;
15669;SDS011;18524;45.190;5.732;2023-02-25T22:31:16;6.10;;;4.90;;
15669;SDS011;18524;45.190;5.732;2023-02-25T22:36:07;6.23;;;4.53;;
15669;SDS011;18524;45.190;5.732;2023-02-25T22:40:59;7.93;;;4.80;;
15669;SDS011;18524;45.190;5.732;2023-02-25T22:45:55;6.60;;;4.80;;
15669;SDS011;18524;45.190;5.732;2023-02-25T22:50:56;6.43;;;4.53;;
15669;SDS011;18524;45.190;5.732;2023-02-25T22:55:47;6.23;;;4.77;;
15669;SDS011;18524;45.190;5.732;2023-02-25T23:00:41;6.93;;;4.80;;
15669;SDS011;18524;45.190;5.732;2023-02-25T23:05:35;6.43;;;4.63;;
15669;SDS011;18524;45.190;5.732;2023-02-25T23:10:25;5.97;;;4.90;;
15669;SDS011;18524;45.190;5.732;2023-02-25T23:15:17;5.77;;;4.50;;
15669;SDS011;18524;45.190;5.732;2023-02-25T23:20:07;5.97;;;4.27;;
15669;SDS011;18524;45.190;5.732;2023-02-25T23:24:59;6.67;;;4.33;;
15669;SDS011;18524;45.190;5.732;2023-02-25T23:29:49;6.07;;;4.20;;
15669;SDS011;18524;45.190;5.732;2023-02-25T23:34:42;6.00;;;4.20;;
15669;SDS011;18524;45.190;5.732;2023-02-25T23:39:32;6.43;;;4.77;;
15669;SDS011;18524;45.190;5.732;2023-02-25T23:44:23;7.87;;;4.70;;
15669;SDS011;18524;45.190;5.732;2023-02-25T23:49:15;6.07;;;4.43;;
15669;SDS011;18524;45.190;5.732;2023-02-25T23:54:11;7.53;;;4.83;;
15669;SDS011;18524;45.190;5.732;2023-02-25T23:59:03;8.00;;;4.83;;
